sensor_id;sensor_type;location;lat;lon;timestamp;pressure;altitude;pressure_sealevel;temperature;humidity
54910;BME280;63189;51.240;9.964;2023-03-24T00:00:41;96740.53;;;10.28;100.00
54910;BME280;63189;51.240;9.964;2023-03-24T00:03:06;96745.06;;;10.24;100.00
54910;BME280;63189;51.240;9.964;2023-03-24T00:05:32;96747.59;;;10.26;100.00
54910;BME280;63189;51.240;9.964;2023-03-24T00:07:58;96711.81;;;10.10;100.00
54910;BME280;63189;51.240;9.964;2023-03-24T00:10:27;96732.78;;;10.26;100.00
54910;BME280;63189;51.240;9.964;2023-03-24T00:12:59;96735.63;;;10.22;100.00
54910;BME280;63189;51.240;9.964;2023-03-24T00:15:25;96731.09;;;10.25;100.00
54910;BME280;63189;51.240;9.964;2023-03-24T00:17:51;96738.84;;;10.27;100.00
54910;BME280;63189;51.240;9.964;2023-03-24T00:20:19;96719.09;;;10.23;100.00
54910;BME280;63189;51.240;9.964;2023-03-24T00:22:47;96721.78;;;10.20;100.00
54910;BME280;63189;51.240;9.964;2023-03-24T00:25:16;96731.94;;;10.26;100.00
54910;BME280;63189;51.240;9.964;2023-03-24T00:27:42;96730.25;;;10.25;100.00
54910;BME280;63189;51.240;9.964;2023-03-24T00:30:11;96735.47;;;10.25;100.00
54910;BME280;63189;51.240;9.964;2023-03-24T00:32:37;96726.16;;;10.19;100.00
54910;BME280;63189;51.240;9.964;2023-03-24T00:35:07;96721.94;;;10.17;100.00
54910;BME280;63189;51.240;9.964;2023-03-24T00:37:34;96742.53;;;10.23;100.00
54910;BME280;63189;51.240;9.964;2023-03-24T00:40:04;96715.56;;;10.05;100.00
54910;BME280;63189;51.240;9.964;2023-03-24T00:42:34;96733.88;;;10.21;100.00
54910;BME280;63189;51.240;9.964;2023-03-24T00:45:05;96723.03;;;10.12;100.00
54910;BME280;63189;51.240;9.964;2023-03-24T00:47:32;96720.19;;;10.17;100.00
54910;BME280;63189;51.240;9.964;2023-03-24T00:50:04;96726.53;;;10.11;100.00
54910;BME280;63189;51.240;9.964;2023-03-24T00:52:30;96707.47;;;10.11;100.00
54910;BME280;63189;51.240;9.964;2023-03-24T00:55:00;96712.44;;;10.16;100.00
54910;BME280;63189;51.240;9.964;2023-03-24T00:57:29;96689.53;;;10.05;100.00
54910;BME280;63189;51.240;9.964;2023-03-24T01:00:05;96699.03;;;10.06;100.00
54910;BME280;63189;51.240;9.964;2023-03-24T01:02:38;96715.34;;;10.09;100.00
54910;BME280;63189;51.240;9.964;2023-03-24T01:05:04;96707.47;;;10.11;100.00
54910;BME280;63189;51.240;9.964;2023-03-24T01:07:31;96706.56;;;10.12;100.00
54910;BME280;63189;51.240;9.964;2023-03-24T01:09:57;96673.50;;;9.95;100.00
54910;BME280;63189;51.240;9.964;2023-03-24T01:12:24;96679.63;;;9.94;100.00
54910;BME280;63189;51.240;9.964;2023-03-24T01:14:51;96693.72;;;10.07;100.00
54910;BME280;63189;51.240;9.964;2023-03-24T01:17:19;96652.34;;;9.84;100.00
54910;BME280;63189;51.240;9.964;2023-03-24T01:19:47;96675.66;;;10.04;100.00
54910;BME280;63189;51.240;9.964;2023-03-24T01:22:12;96667.16;;;10.01;100.00
54910;BME280;63189;51.240;9.964;2023-03-24T01:24:37;96679.19;;;10.03;100.00
54910;BME280;63189;51.240;9.964;2023-03-24T01:27:04;96636.50;;;9.89;100.00
54910;BME280;63189;51.240;9.964;2023-03-24T01:29:31;96632.38;;;9.84;100.00
54910;BME280;63189;51.240;9.964;2023-03-24T01:31:57;96622.97;;;9.82;100.00
54910;BME280;63189;51.240;9.964;2023-03-24T01:34:22;96645.03;;;9.92;100.00
54910;BME280;63189;51.240;9.964;2023-03-24T01:36:49;96620.28;;;9.83;100.00
54910;BME280;63189;51.240;9.964;2023-03-24T01:39:14;96652.53;;;9.98;100.00
54910;BME280;63189;51.240;9.964;2023-03-24T01:41:39;96634.53;;;9.94;100.00
54910;BME280;63189;51.240;9.964;2023-03-24T01:44:29;96643.09;;;9.96;100.00
54910;BME280;63189;51.240;9.964;2023-03-24T01:46:55;96627.84;;;9.88;100.00
54910;BME280;63189;51.240;9.964;2023-03-24T01:49:21;96644.88;;;9.95;100.00
54910;BME280;63189;51.240;9.964;2023-03-24T01:51:52;96614.16;;;9.84;100.00
54910;BME280;63189;51.240;9.964;2023-03-24T01:54:24;96628.41;;;9.95;100.00
54910;BME280;63189;51.240;9.964;2023-03-24T01:59:29;96614.53;;;9.94;100.00
54910;BME280;63189;51.240;9.964;2023-03-24T02:01:56;96606.94;;;9.90;100.00
54910;BME280;63189;51.240;9.964;2023-03-24T02:04:32;96591.09;;;9.77;100.00
54910;BME280;63189;51.240;9.964;2023-03-24T02:07:03;96565.19;;;9.57;100.00
54910;BME280;63189;51.240;9.964;2023-03-24T02:09:31;96609.72;;;9.87;100.00
54910;BME280;63189;51.240;9.964;2023-03-24T02:11:58;96578.47;;;9.69;100.00
54910;BME280;63189;51.240;9.964;2023-03-24T02:14:24;96601.28;;;9.81;100.00
54910;BME280;63189;51.240;9.964;2023-03-24T02:20:01;96582.59;;;9.73;100.00
54910;BME280;63189;51.240;9.964;2023-03-24T02:25:40;96587.66;;;9.76;100.00
54910;BME280;63189;51.240;9.964;2023-03-24T02:36:28;96591.16;;;9.75;100.00
54910;BME280;63189;51.240;9.964;2023-03-24T02:39:32;96581.44;;;9.79;100.00
54910;BME280;63189;51.240;9.964;2023-03-24T02:47:45;96560.03;;;9.74;100.00
54910;BME280;63189;51.240;9.964;2023-03-24T02:53:19;96567.28;;;9.84;100.00
54910;BME280;63189;51.240;9.964;2023-03-24T02:56:25;96552.69;;;9.82;100.00
54910;BME280;63189;51.240;9.964;2023-03-24T02:58:59;96538.19;;;9.76;100.00
54910;BME280;63189;51.240;9.964;2023-03-24T03:01:33;96531.84;;;9.82;100.00
54910;BME280;63189;51.240;9.964;2023-03-24T03:04:14;96533.38;;;9.86;100.00
54910;BME280;63189;51.240;9.964;2023-03-24T03:06:44;96535.44;;;9.79;100.00
54910;BME280;63189;51.240;9.964;2023-03-24T03:09:15;96524.34;;;9.76;100.00
54910;BME280;63189;51.240;9.964;2023-03-24T03:11:46;96546.56;;;9.83;100.00
54910;BME280;63189;51.240;9.964;2023-03-24T03:14:51;96531.22;;;9.77;100.00
54910;BME280;63189;51.240;9.964;2023-03-24T03:17:27;96531.09;;;9.80;100.00
54910;BME280;63189;51.240;9.964;2023-03-24T03:19:59;96540.34;;;9.86;100.00
54910;BME280;63189;51.240;9.964;2023-03-24T03:22:41;96510.28;;;9.80;100.00
54910;BME280;63189;51.240;9.964;2023-03-24T03:25:11;96498.47;;;9.73;100.00
54910;BME280;63189;51.240;9.964;2023-03-24T03:27:39;96505.91;;;9.80;100.00
54910;BME280;63189;51.240;9.964;2023-03-24T03:30:21;96508.25;;;9.85;100.00
54910;BME280;63189;51.240;9.964;2023-03-24T03:32:55;96509.25;;;9.82;100.00
54910;BME280;63189;51.240;9.964;2023-03-24T03:35:32;96501.66;;;9.78;100.00
54910;BME280;63189;51.240;9.964;2023-03-24T03:38:15;96504.91;;;9.83;100.00
54910;BME280;63189;51.240;9.964;2023-03-24T03:40:56;96499.88;;;9.80;100.00
54910;BME280;63189;51.240;9.964;2023-03-24T03:43:25;96501.38;;;9.84;100.00
54910;BME280;63189;51.240;9.964;2023-03-24T03:45:51;96466.78;;;9.65;100.00
54910;BME280;63189;51.240;9.964;2023-03-24T03:48:17;96470.38;;;9.62;100.00
54910;BME280;63189;51.240;9.964;2023-03-24T03:50:43;96441.38;;;9.52;100.00
54910;BME280;63189;51.240;9.964;2023-03-24T03:53:10;96470.78;;;9.72;100.00
54910;BME280;63189;51.240;9.964;2023-03-24T03:55:37;96476.56;;;9.77;100.00
54910;BME280;63189;51.240;9.964;2023-03-24T03:58:03;96461.19;;;9.72;100.00
54910;BME280;63189;51.240;9.964;2023-03-24T04:00:30;96476.47;;;9.78;100.00
54910;BME280;63189;51.240;9.964;2023-03-24T04:03:09;96477.31;;;9.79;100.00
54910;BME280;63189;51.240;9.964;2023-03-24T04:24:38;96440.97;;;9.77;100.00
54910;BME280;63189;51.240;9.964;2023-03-24T04:32:56;96452.00;;;9.82;100.00
54910;BME280;63189;51.240;9.964;2023-03-24T04:35:45;96426.28;;;9.76;100.00
54910;BME280;63189;51.240;9.964;2023-03-24T04:38:20;96435.16;;;9.72;100.00
54910;BME280;63189;51.240;9.964;2023-03-24T04:40:50;96428.44;;;9.68;100.00
54910;BME280;63189;51.240;9.964;2023-03-24T04:43:21;96401.53;;;9.52;100.00
54910;BME280;63189;51.240;9.964;2023-03-24T04:45:51;96421.41;;;9.70;100.00
54910;BME280;63189;51.240;9.964;2023-03-24T04:48:23;96424.59;;;9.75;100.00
54910;BME280;63189;51.240;9.964;2023-03-24T04:50:53;96425.59;;;9.73;100.00
54910;BME280;63189;51.240;9.964;2023-03-24T04:53:19;96430.81;;;9.73;100.00
54910;BME280;63189;51.240;9.964;2023-03-24T04:58:13;96410.81;;;9.73;100.00
54910;BME280;63189;51.240;9.964;2023-03-24T05:00:39;96398.53;;;9.60;100.00
54910;BME280;63189;51.240;9.964;2023-03-24T05:03:06;96408.63;;;9.66;100.00
54910;BME280;63189;51.240;9.964;2023-03-24T05:05:31;96419.28;;;9.61;100.00
54910;BME280;63189;51.240;9.964;2023-03-24T05:07:57;96432.66;;;9.71;100.00
54910;BME280;63189;51.240;9.964;2023-03-24T05:10:23;96411.03;;;9.69;100.00
54910;BME280;63189;51.240;9.964;2023-03-24T05:12:48;96424.59;;;9.75;100.00
54910;BME280;63189;51.240;9.964;2023-03-24T05:15:15;96413.66;;;9.69;100.00
54910;BME280;63189;51.240;9.964;2023-03-24T05:17:41;96413.50;;;9.72;100.00
54910;BME280;63189;51.240;9.964;2023-03-24T05:20:07;96404.50;;;9.62;100.00
54910;BME280;63189;51.240;9.964;2023-03-24T05:22:37;96408.78;;;9.63;100.00
54910;BME280;63189;51.240;9.964;2023-03-24T05:25:03;96431.88;;;9.69;100.00
54910;BME280;63189;51.240;9.964;2023-03-24T05:27:28;96413.81;;;9.66;100.00
54910;BME280;63189;51.240;9.964;2023-03-24T05:29:54;96404.16;;;9.68;100.00
54910;BME280;63189;51.240;9.964;2023-03-24T05:32:21;96387.13;;;9.62;100.00
54910;BME280;63189;51.240;9.964;2023-03-24T05:34:46;96387.97;;;9.63;100.00
54910;BME280;63189;51.240;9.964;2023-03-24T05:37:12;96372.09;;;9.67;100.00
54910;BME280;63189;51.240;9.964;2023-03-24T05:39:44;96376.31;;;9.70;100.00
54910;BME280;63189;51.240;9.964;2023-03-24T05:42:09;96370.03;;;9.74;100.00
54910;BME280;63189;51.240;9.964;2023-03-24T05:44:35;96373.38;;;9.76;100.00
54910;BME280;63189;51.240;9.964;2023-03-24T05:47:01;96371.03;;;9.71;100.00
54910;BME280;63189;51.240;9.964;2023-03-24T05:49:27;96375.81;;;9.79;100.00
54910;BME280;63189;51.240;9.964;2023-03-24T05:51:53;96373.06;;;9.82;100.00
54910;BME280;63189;51.240;9.964;2023-03-24T05:54:20;96379.44;;;9.76;100.00
54910;BME280;63189;51.240;9.964;2023-03-24T05:56:46;96387.84;;;9.81;100.00
54910;BME280;63189;51.240;9.964;2023-03-24T05:59:11;96391.28;;;9.82;100.00
54910;BME280;63189;51.240;9.964;2023-03-24T06:01:37;96404.13;;;9.85;100.00
54910;BME280;63189;51.240;9.964;2023-03-24T06:04:03;96374.78;;;9.66;100.00
54910;BME280;63189;51.240;9.964;2023-03-24T06:06:29;96417.91;;;9.87;100.00
54910;BME280;63189;51.240;9.964;2023-03-24T06:08:54;96428.09;;;9.92;100.00
54910;BME280;63189;51.240;9.964;2023-03-24T06:11:19;96439.44;;;9.91;100.00
54910;BME280;63189;51.240;9.964;2023-03-24T06:13:45;96431.38;;;9.95;100.00
54910;BME280;63189;51.240;9.964;2023-03-24T06:16:10;96431.47;;;9.94;100.00
54910;BME280;63189;51.240;9.964;2023-03-24T06:18:36;96429.69;;;9.94;100.00
54910;BME280;63189;51.240;9.964;2023-03-24T06:21:05;96429.78;;;9.93;100.00
54910;BME280;63189;51.240;9.964;2023-03-24T06:23:31;96420.13;;;9.95;100.00
54910;BME280;63189;51.240;9.964;2023-03-24T06:25:58;96419.44;;;9.91;100.00
54910;BME280;63189;51.240;9.964;2023-03-24T06:28:26;96409.19;;;9.88;100.00
54910;BME280;63189;51.240;9.964;2023-03-24T06:30:55;96407.34;;;9.90;100.00
54910;BME280;63189;51.240;9.964;2023-03-24T06:33:21;96416.50;;;9.97;100.00
54910;BME280;63189;51.240;9.964;2023-03-24T06:35:52;96400.31;;;9.92;100.00
54910;BME280;63189;51.240;9.964;2023-03-24T06:38:18;96383.94;;;9.90;100.00
54910;BME280;63189;51.240;9.964;2023-03-24T06:40:43;96416.13;;;10.05;100.00
54910;BME280;63189;51.240;9.964;2023-03-24T06:43:09;96407.63;;;10.01;100.00
54910;BME280;63189;51.240;9.964;2023-03-24T06:45:35;96412.19;;;10.13;100.00
54910;BME280;63189;51.240;9.964;2023-03-24T06:48:03;96386.19;;;9.96;100.00
54910;BME280;63189;51.240;9.964;2023-03-24T06:50:28;96432.84;;;10.17;100.00
54910;BME280;63189;51.240;9.964;2023-03-24T06:52:58;96442.34;;;10.18;100.00
54910;BME280;63189;51.240;9.964;2023-03-24T06:55:24;96443.09;;;10.20;100.00
54910;BME280;63189;51.240;9.964;2023-03-24T06:57:49;96431.91;;;10.18;100.00
54910;BME280;63189;51.240;9.964;2023-03-24T07:00:15;96438.69;;;10.22;100.00
54910;BME280;63189;51.240;9.964;2023-03-24T07:02:40;96439.66;;;10.19;100.00
54910;BME280;63189;51.240;9.964;2023-03-24T07:05:07;96448.09;;;10.24;100.00
54910;BME280;63189;51.240;9.964;2023-03-24T07:07:36;96438.63;;;10.23;100.00
54910;BME280;63189;51.240;9.964;2023-03-24T07:10:04;96446.91;;;10.30;100.00
54910;BME280;63189;51.240;9.964;2023-03-24T07:12:30;96439.19;;;10.28;100.00
54910;BME280;63189;51.240;9.964;2023-03-24T07:14:55;96440.56;;;10.35;100.00
54910;BME280;63189;51.240;9.964;2023-03-24T07:17:22;96455.34;;;10.35;100.00
54910;BME280;63189;51.240;9.964;2023-03-24T07:19:47;96426.09;;;10.30;100.00
54910;BME280;63189;51.240;9.964;2023-03-24T07:22:13;96428.28;;;10.37;100.00
54910;BME280;63189;51.240;9.964;2023-03-24T07:24:38;96441.91;;;10.43;100.00
54910;BME280;63189;51.240;9.964;2023-03-24T07:27:04;96447.72;;;10.48;100.00
54910;BME280;63189;51.240;9.964;2023-03-24T07:29:29;96456.19;;;10.51;100.00
54910;BME280;63189;51.240;9.964;2023-03-24T07:31:55;96449.06;;;10.55;100.00
54910;BME280;63189;51.240;9.964;2023-03-24T07:34:28;96438.38;;;10.59;100.00
54910;BME280;63189;51.240;9.964;2023-03-24T07:36:54;96440.56;;;10.67;100.00
54910;BME280;63189;51.240;9.964;2023-03-24T07:39:20;96437.69;;;10.72;100.00
54910;BME280;63189;51.240;9.964;2023-03-24T07:41:46;96439.97;;;10.78;100.00
54910;BME280;63189;51.240;9.964;2023-03-24T07:44:12;96453.81;;;10.94;100.00
54910;BME280;63189;51.240;9.964;2023-03-24T07:46:38;96454.44;;;10.99;100.00
54910;BME280;63189;51.240;9.964;2023-03-24T07:49:04;96451.06;;;10.97;100.00
54910;BME280;63189;51.240;9.964;2023-03-24T07:51:29;96418.38;;;10.76;100.00
54910;BME280;63189;51.240;9.964;2023-03-24T07:53:55;96456.28;;;10.97;100.00
54910;BME280;63189;51.240;9.964;2023-03-24T07:56:20;96460.56;;;10.98;100.00
54910;BME280;63189;51.240;9.964;2023-03-24T07:58:46;96468.03;;;11.04;100.00
54910;BME280;63189;51.240;9.964;2023-03-24T08:01:11;96482.44;;;11.11;100.00
54910;BME280;63189;51.240;9.964;2023-03-24T08:03:40;96494.28;;;11.17;100.00
54910;BME280;63189;51.240;9.964;2023-03-24T08:06:09;96512.66;;;11.15;100.00
54910;BME280;63189;51.240;9.964;2023-03-24T08:08:35;96519.44;;;11.18;100.00
54910;BME280;63189;51.240;9.964;2023-03-24T08:11:02;96519.03;;;10.94;100.00
54910;BME280;63189;51.240;9.964;2023-03-24T08:13:28;96529.06;;;10.86;100.00
54910;BME280;63189;51.240;9.964;2023-03-24T08:15:53;96537.06;;;10.50;100.00
54910;BME280;63189;51.240;9.964;2023-03-24T08:18:19;96527.94;;;10.25;100.00
54910;BME280;63189;51.240;9.964;2023-03-24T08:20:46;96527.38;;;10.19;100.00
54910;BME280;63189;51.240;9.964;2023-03-24T08:23:11;96512.47;;;10.05;100.00
54910;BME280;63189;51.240;9.964;2023-03-24T08:25:37;96537.28;;;10.12;100.00
54910;BME280;63189;51.240;9.964;2023-03-24T08:28:03;96529.75;;;10.06;100.00
54910;BME280;63189;51.240;9.964;2023-03-24T08:30:28;96519.91;;;9.95;100.00
54910;BME280;63189;51.240;9.964;2023-03-24T08:32:57;96517.84;;;10.02;100.00
54910;BME280;63189;51.240;9.964;2023-03-24T08:35:29;96529.38;;;9.96;100.00
54910;BME280;63189;51.240;9.964;2023-03-24T08:37:55;96495.50;;;9.80;100.00
54910;BME280;63189;51.240;9.964;2023-03-24T08:40:24;96539.88;;;9.95;100.00
54910;BME280;63189;51.240;9.964;2023-03-24T08:42:53;96533.28;;;9.88;100.00
54910;BME280;63189;51.240;9.964;2023-03-24T08:45:20;96484.41;;;9.60;100.00
54910;BME280;63189;51.240;9.964;2023-03-24T08:47:47;96549.63;;;9.91;100.00
54910;BME280;63189;51.240;9.964;2023-03-24T08:50:13;96546.94;;;9.93;100.00
54910;BME280;63189;51.240;9.964;2023-03-24T08:52:39;96519.91;;;9.78;100.00
54910;BME280;63189;51.240;9.964;2023-03-24T08:55:06;96545.25;;;9.92;100.00
54910;BME280;63189;51.240;9.964;2023-03-24T08:57:34;96508.03;;;9.72;100.00
54910;BME280;63189;51.240;9.964;2023-03-24T09:00:00;96544.94;;;9.98;100.00
54910;BME280;63189;51.240;9.964;2023-03-24T09:02:25;96530.00;;;10.01;100.00
54910;BME280;63189;51.240;9.964;2023-03-24T09:04:51;96525.84;;;10.32;100.00
54910;BME280;63189;51.240;9.964;2023-03-24T09:07:19;96556.09;;;10.67;100.00
54910;BME280;63189;51.240;9.964;2023-03-24T09:09:45;96540.47;;;10.67;100.00
54910;BME280;63189;51.240;9.964;2023-03-24T09:12:10;96543.72;;;10.55;100.00
54910;BME280;63189;51.240;9.964;2023-03-24T09:14:35;96559.59;;;10.51;100.00
54910;BME280;63189;51.240;9.964;2023-03-24T09:17:01;96529.97;;;10.36;100.00
54910;BME280;63189;51.240;9.964;2023-03-24T09:19:26;96566.03;;;10.77;100.00
54910;BME280;63189;51.240;9.964;2023-03-24T09:21:52;96568.03;;;10.72;100.00
54910;BME280;63189;51.240;9.964;2023-03-24T09:24:17;96559.94;;;10.60;100.00
54910;BME280;63189;51.240;9.964;2023-03-24T09:26:42;96584.16;;;10.62;100.00
54910;BME280;63189;51.240;9.964;2023-03-24T09:29:08;96559.75;;;10.48;100.00
54910;BME280;63189;51.240;9.964;2023-03-24T09:31:33;96553.78;;;10.46;100.00
54910;BME280;63189;51.240;9.964;2023-03-24T09:33:59;96545.06;;;10.29;100.00
54910;BME280;63189;51.240;9.964;2023-03-24T09:36:24;96555.66;;;10.26;100.00
54910;BME280;63189;51.240;9.964;2023-03-24T09:38:50;96558.84;;;10.31;100.00
54910;BME280;63189;51.240;9.964;2023-03-24T09:41:27;96564.06;;;10.31;100.00
54910;BME280;63189;51.240;9.964;2023-03-24T09:43:57;96575.19;;;10.35;100.00
54910;BME280;63189;51.240;9.964;2023-03-24T09:46:40;96563.09;;;10.34;100.00
54910;BME280;63189;51.240;9.964;2023-03-24T09:49:11;96555.72;;;10.42;100.00
54910;BME280;63189;51.240;9.964;2023-03-24T09:51:42;96561.53;;;10.47;100.00
54910;BME280;63189;51.240;9.964;2023-03-24T09:54:21;96575.03;;;10.38;100.00
54910;BME280;63189;51.240;9.964;2023-03-24T09:56:51;96566.91;;;10.44;100.00
54910;BME280;63189;51.240;9.964;2023-03-24T09:59:20;96566.91;;;10.44;100.00
54910;BME280;63189;51.240;9.964;2023-03-24T10:01:48;96535.09;;;10.20;100.00
54910;BME280;63189;51.240;9.964;2023-03-24T10:04:18;96589.22;;;10.32;100.00
54910;BME280;63189;51.240;9.964;2023-03-24T10:06:46;96582.25;;;10.33;100.00
54910;BME280;63189;51.240;9.964;2023-03-24T10:12:10;96605.28;;;10.40;100.00
54910;BME280;63189;51.240;9.964;2023-03-24T10:20:46;96618.84;;;10.30;100.00
54910;BME280;63189;51.240;9.964;2023-03-24T10:23:39;96622.72;;;10.23;100.00
54910;BME280;63189;51.240;9.964;2023-03-24T10:26:27;96634.81;;;10.24;100.00
54910;BME280;63189;51.240;9.964;2023-03-24T10:29:20;96636.66;;;10.22;100.00
54910;BME280;63189;51.240;9.964;2023-03-24T10:31:50;96613.47;;;10.16;100.00
54910;BME280;63189;51.240;9.964;2023-03-24T10:34:16;96635.31;;;10.13;100.00
54910;BME280;63189;51.240;9.964;2023-03-24T10:36:42;96636.75;;;10.19;100.00
54910;BME280;63189;51.240;9.964;2023-03-24T10:39:18;96630.63;;;10.20;100.00
54910;BME280;63189;51.240;9.964;2023-03-24T10:41:47;96616.69;;;10.21;100.00
54910;BME280;63189;51.240;9.964;2023-03-24T10:44:13;96594.41;;;10.15;100.00
54910;BME280;63189;51.240;9.964;2023-03-24T10:46:44;96603.56;;;10.24;100.00
54910;BME280;63189;51.240;9.964;2023-03-24T10:51:36;96565.59;;;10.18;100.00
54910;BME280;63189;51.240;9.964;2023-03-24T10:56:39;96578.44;;;10.23;100.00
54910;BME280;63189;51.240;9.964;2023-03-24T10:59:18;96573.81;;;10.28;100.00
54910;BME280;63189;51.240;9.964;2023-03-24T11:01:45;96583.09;;;10.33;100.00
54910;BME280;63189;51.240;9.964;2023-03-24T11:04:13;96571.50;;;10.39;100.00
54910;BME280;63189;51.240;9.964;2023-03-24T11:06:53;96598.28;;;10.58;100.00
54910;BME280;63189;51.240;9.964;2023-03-24T11:09:23;96599.38;;;10.54;100.00
54910;BME280;63189;51.240;9.964;2023-03-24T11:11:48;96555.63;;;10.44;100.00
54910;BME280;63189;51.240;9.964;2023-03-24T11:14:20;96555.06;;;10.54;100.00
54910;BME280;63189;51.240;9.964;2023-03-24T11:16:48;96567.75;;;10.60;100.00
54910;BME280;63189;51.240;9.964;2023-03-24T11:19:21;96578.94;;;10.62;100.00
54910;BME280;63189;51.240;9.964;2023-03-24T11:21:48;96579.94;;;10.60;100.00
54910;BME280;63189;51.240;9.964;2023-03-24T11:24:17;96600.59;;;10.47;100.00
54910;BME280;63189;51.240;9.964;2023-03-24T11:26:49;96605.38;;;10.39;100.00
54910;BME280;63189;51.240;9.964;2023-03-24T11:29:19;96621.16;;;10.36;100.00
54910;BME280;63189;51.240;9.964;2023-03-24T11:31:54;96620.44;;;10.15;100.00
54910;BME280;63189;51.240;9.964;2023-03-24T11:34:32;96646.16;;;10.21;100.00
54910;BME280;63189;51.240;9.964;2023-03-24T11:37:04;96667.59;;;10.28;100.00
54910;BME280;63189;51.240;9.964;2023-03-24T11:39:33;96683.47;;;10.23;100.00
54910;BME280;63189;51.240;9.964;2023-03-24T11:44:41;96698.00;;;10.27;100.00
54910;BME280;63189;51.240;9.964;2023-03-24T11:47:12;96701.63;;;10.25;100.00
54910;BME280;63189;51.240;9.964;2023-03-24T11:49:45;96705.44;;;10.35;100.00
54910;BME280;63189;51.240;9.964;2023-03-24T11:52:21;96664.28;;;10.41;100.00
54910;BME280;63189;51.240;9.964;2023-03-24T11:54:47;96676.56;;;10.57;100.00
54910;BME280;63189;51.240;9.964;2023-03-24T11:57:17;96616.06;;;10.67;100.00
54910;BME280;63189;51.240;9.964;2023-03-24T11:59:55;96597.03;;;10.98;100.00
54910;BME280;63189;51.240;9.964;2023-03-24T12:10:37;96631.72;;;11.32;92.91
54910;BME280;63189;51.240;9.964;2023-03-24T12:13:14;96627.59;;;11.44;93.46
54910;BME280;63189;51.240;9.964;2023-03-24T12:20:45;96658.84;;;11.93;94.46
54910;BME280;63189;51.240;9.964;2023-03-24T12:23:36;96634.41;;;11.94;92.23
54910;BME280;63189;51.240;9.964;2023-03-24T12:26:30;96609.47;;;11.72;90.91
54910;BME280;63189;51.240;9.964;2023-03-24T12:32:32;96669.69;;;11.85;89.23
54910;BME280;63189;51.240;9.964;2023-03-24T12:34:59;96670.44;;;11.71;88.92
54910;BME280;63189;51.240;9.964;2023-03-24T12:40:33;96693.34;;;11.66;87.96
54910;BME280;63189;51.240;9.964;2023-03-24T12:43:37;96679.69;;;11.77;91.39
54910;BME280;63189;51.240;9.964;2023-03-24T12:49:11;96664.38;;;11.87;88.76
54910;BME280;63189;51.240;9.964;2023-03-24T12:51:49;96661.16;;;12.13;92.02
54910;BME280;63189;51.240;9.964;2023-03-24T12:54:26;96664.31;;;12.18;89.22
54910;BME280;63189;51.240;9.964;2023-03-24T12:57:08;96659.88;;;12.20;89.97
54910;BME280;63189;51.240;9.964;2023-03-24T12:59:47;96635.97;;;12.12;84.84
54910;BME280;63189;51.240;9.964;2023-03-24T13:02:23;96640.16;;;12.14;89.14
54910;BME280;63189;51.240;9.964;2023-03-24T13:04:58;96641.03;;;12.29;87.61
54910;BME280;63189;51.240;9.964;2023-03-24T13:07:29;96626.91;;;12.18;86.65
54910;BME280;63189;51.240;9.964;2023-03-24T13:10:14;96642.66;;;12.46;86.44
54910;BME280;63189;51.240;9.964;2023-03-24T13:12:53;96621.94;;;12.43;83.68
54910;BME280;63189;51.240;9.964;2023-03-24T13:15:23;96625.16;;;12.62;87.36
54910;BME280;63189;51.240;9.964;2023-03-24T13:20:48;96635.13;;;12.70;81.25
54910;BME280;63189;51.240;9.964;2023-03-24T13:28:50;96623.94;;;12.68;77.25
54910;BME280;63189;51.240;9.964;2023-03-24T13:31:20;96626.75;;;12.79;77.60
54910;BME280;63189;51.240;9.964;2023-03-24T13:33:48;96630.38;;;12.77;79.67
54910;BME280;63189;51.240;9.964;2023-03-24T13:36:46;96642.81;;;12.87;77.52
54910;BME280;63189;51.240;9.964;2023-03-24T13:39:18;96601.50;;;12.50;79.25
54910;BME280;63189;51.240;9.964;2023-03-24T13:41:51;96631.03;;;12.52;78.36
54910;BME280;63189;51.240;9.964;2023-03-24T13:44:22;96633.66;;;12.66;78.91
54910;BME280;63189;51.240;9.964;2023-03-24T13:47:05;96643.47;;;12.77;79.41
54910;BME280;63189;51.240;9.964;2023-03-24T13:49:33;96652.78;;;12.81;80.83
54910;BME280;63189;51.240;9.964;2023-03-24T13:52:03;96652.16;;;12.77;79.39
54910;BME280;63189;51.240;9.964;2023-03-24T13:54:29;96645.59;;;12.70;78.51
54910;BME280;63189;51.240;9.964;2023-03-24T13:57:05;96650.38;;;12.63;78.32
54910;BME280;63189;51.240;9.964;2023-03-24T14:02:45;96654.56;;;12.66;78.55
54910;BME280;63189;51.240;9.964;2023-03-24T14:05:32;96649.72;;;12.74;79.08
54910;BME280;63189;51.240;9.964;2023-03-24T14:15:34;96640.03;;;13.05;73.61
54910;BME280;63189;51.240;9.964;2023-03-24T14:20:58;96636.06;;;13.12;77.86
54910;BME280;63189;51.240;9.964;2023-03-24T14:23:45;96641.50;;;13.09;75.98
54910;BME280;63189;51.240;9.964;2023-03-24T14:28:51;96618.72;;;12.82;75.57
54910;BME280;63189;51.240;9.964;2023-03-24T14:31:22;96634.69;;;12.92;75.24
54910;BME280;63189;51.240;9.964;2023-03-24T14:36:38;96631.41;;;12.88;74.05
54910;BME280;63189;51.240;9.964;2023-03-24T14:39:20;96649.53;;;12.91;75.98
54910;BME280;63189;51.240;9.964;2023-03-24T14:41:48;96643.75;;;12.72;75.83
54910;BME280;63189;51.240;9.964;2023-03-24T14:44:54;96653.38;;;12.71;77.11
54910;BME280;63189;51.240;9.964;2023-03-24T14:47:25;96636.06;;;12.69;74.61
54910;BME280;63189;51.240;9.964;2023-03-24T14:49:53;96614.94;;;12.58;75.90
54910;BME280;63189;51.240;9.964;2023-03-24T14:52:39;96621.41;;;12.66;74.03
54910;BME280;63189;51.240;9.964;2023-03-24T14:55:11;96633.84;;;12.77;77.82
54910;BME280;63189;51.240;9.964;2023-03-24T14:57:42;96631.72;;;12.84;77.75
54910;BME280;63189;51.240;9.964;2023-03-24T15:02:52;96625.72;;;12.67;77.43
54910;BME280;63189;51.240;9.964;2023-03-24T15:10:24;96621.13;;;12.71;75.27
54910;BME280;63189;51.240;9.964;2023-03-24T15:12:50;96620.56;;;12.66;75.91
54910;BME280;63189;51.240;9.964;2023-03-24T15:15:21;96618.78;;;12.66;77.88
54910;BME280;63189;51.240;9.964;2023-03-24T15:17:48;96641.19;;;12.70;73.00